createdAt,value
2022-12-12T00:01:56.119Z,19.90
2022-12-12T00:04:27.866Z,21.40
2022-12-12T00:06:59.636Z,21.03
2022-12-12T00:09:31.374Z,21.67
2022-12-12T00:12:03.284Z,19.80
2022-12-12T00:14:35.041Z,19.87
2022-12-12T00:17:06.859Z,18.77
2022-12-12T00:19:38.574Z,22.05
2022-12-12T00:22:10.482Z,20.70
2022-12-12T00:24:42.218Z,21.27
2022-12-12T00:27:13.984Z,19.93
2022-12-12T00:29:45.786Z,20.47
2022-12-12T00:32:17.595Z,20.47
2022-12-12T00:34:49.340Z,21.40
2022-12-12T00:37:21.093Z,20.13
2022-12-12T00:39:53.039Z,20.67
2022-12-12T00:42:27.209Z,22.47
2022-12-12T00:44:59.010Z,19.80
2022-12-12T00:47:32.232Z,22.00
2022-12-12T00:50:04.234Z,20.80
2022-12-12T00:52:36.340Z,18.73
2022-12-12T00:55:09.938Z,21.27
2022-12-12T00:57:42.006Z,21.60
2022-12-12T01:00:14.584Z,20.20
2022-12-12T01:02:46.365Z,20.30
2022-12-12T01:05:19.069Z,22.20
2022-12-12T01:07:51.009Z,19.47
2022-12-12T01:10:23.313Z,24.03
2022-12-12T01:12:55.097Z,22.90
2022-12-12T01:15:26.890Z,25.08
2022-12-12T01:17:58.586Z,24.17
2022-12-12T01:20:30.358Z,22.53
2022-12-12T01:23:02.163Z,22.67
2022-12-12T01:25:34.223Z,21.53
2022-12-12T01:28:06.097Z,20.60
2022-12-12T01:30:38.434Z,21.90
2022-12-12T01:33:10.172Z,19.33
2022-12-12T01:35:41.889Z,20.07
2022-12-12T01:38:13.711Z,19.77
2022-12-12T01:40:46.643Z,20.43
2022-12-12T01:43:20.331Z,21.63
2022-12-12T01:46:02.532Z,20.90
2022-12-12T01:48:40.600Z,20.87
2022-12-12T01:51:16.226Z,20.83
2022-12-12T01:53:49.938Z,21.27
2022-12-12T01:56:21.780Z,19.13
2022-12-12T01:58:55.400Z,20.67
2022-12-12T02:01:27.575Z,21.60
2022-12-12T02:04:01.936Z,21.87
2022-12-12T02:06:34.965Z,19.70
2022-12-12T02:09:10.672Z,23.52
2022-12-12T02:11:46.642Z,20.27
2022-12-12T02:14:22.909Z,20.90
2022-12-12T02:17:12.573Z,21.30
2022-12-12T02:20:13.498Z,21.13
2022-12-12T02:23:23.133Z,21.83
2022-12-12T02:26:32.799Z,21.30
2022-12-12T02:29:07.502Z,20.03
2022-12-12T02:31:49.176Z,21.50
2022-12-12T02:34:49.281Z,20.30
2022-12-12T02:37:39.261Z,22.17
2022-12-12T02:40:18.119Z,21.27
2022-12-12T02:42:53.891Z,21.67
2022-12-12T02:45:37.717Z,20.87
2022-12-12T02:48:19.964Z,22.53
2022-12-12T02:50:54.329Z,21.13
2022-12-12T02:53:26.205Z,21.73
2022-12-12T02:56:06.298Z,23.83
2022-12-12T02:58:38.701Z,22.20
2022-12-12T03:01:18.413Z,24.27
2022-12-12T03:04:28.162Z,21.73
2022-12-12T03:07:50.048Z,24.30
2022-12-12T03:10:37.990Z,22.13
2022-12-12T03:13:39.205Z,24.50
2022-12-12T03:16:19.836Z,20.63
2022-12-12T03:19:00.450Z,20.50
2022-12-12T03:21:46.393Z,18.93
2022-12-12T03:24:18.098Z,20.77
2022-12-12T03:27:21.903Z,17.00
2022-12-12T03:30:13.359Z,18.77
2022-12-12T03:32:59.043Z,18.57
2022-12-12T03:35:39.458Z,22.02
2022-12-12T03:38:28.638Z,19.97
2022-12-12T03:41:07.120Z,19.60
2022-12-12T03:43:51.449Z,22.40
2022-12-12T03:46:43.843Z,21.70
2022-12-12T03:49:29.252Z,23.00
2022-12-12T03:52:47.318Z,22.47
2022-12-12T03:55:29.101Z,22.37
2022-12-12T03:58:09.335Z,20.75
2022-12-12T04:00:42.748Z,21.90
2022-12-12T04:03:29.676Z,23.17
2022-12-12T04:06:42.947Z,21.53
2022-12-12T04:09:36.787Z,21.80
2022-12-12T04:12:48.676Z,18.97
2022-12-12T04:15:39.830Z,21.87
2022-12-12T04:18:50.662Z,21.40
2022-12-12T04:21:59.034Z,21.17
2022-12-12T04:24:45.210Z,21.60
2022-12-12T04:27:19.708Z,21.30
2022-12-12T04:30:00.350Z,20.43
2022-12-12T04:32:44.009Z,22.20
2022-12-12T04:35:29.909Z,22.77
2022-12-12T04:38:05.872Z,21.90
2022-12-12T04:40:44.521Z,21.47
2022-12-12T04:43:20.826Z,21.33
2022-12-12T04:45:57.489Z,22.77
2022-12-12T04:48:40.194Z,21.90
2022-12-12T04:51:18.285Z,20.57
2022-12-12T04:54:14.262Z,22.92
2022-12-12T04:56:51.344Z,21.53
2022-12-12T04:59:23.569Z,21.23
2022-12-12T05:02:07.063Z,19.00
2022-12-12T05:05:02.195Z,21.70
2022-12-12T05:07:42.870Z,18.53
2022-12-12T05:10:17.031Z,21.50
2022-12-12T05:12:51.171Z,19.27
2022-12-12T05:15:23.837Z,21.37
2022-12-12T05:18:08.515Z,19.13
2022-12-12T05:20:40.298Z,19.83
2022-12-12T05:23:13.089Z,22.13
2022-12-12T05:25:45.054Z,23.27
2022-12-12T05:28:16.826Z,21.83
2022-12-12T05:30:48.616Z,23.07
2022-12-12T05:33:20.398Z,21.27
2022-12-12T05:35:52.113Z,20.70
2022-12-12T05:38:23.873Z,22.10
2022-12-12T05:40:55.525Z,21.37
2022-12-12T05:43:27.300Z,20.87
2022-12-12T05:46:00.095Z,21.40
2022-12-12T05:48:32.107Z,22.92
2022-12-12T05:51:04.574Z,20.87
2022-12-12T05:53:42.498Z,20.57
2022-12-12T05:56:14.863Z,19.50
2022-12-12T05:58:46.547Z,19.90
2022-12-12T06:01:18.260Z,22.47
2022-12-12T06:03:50.132Z,19.87
2022-12-12T06:06:21.880Z,21.33
2022-12-12T06:08:53.642Z,22.67
2022-12-12T06:11:25.353Z,22.63
2022-12-12T06:13:57.100Z,22.80
2022-12-12T06:16:28.811Z,23.67
2022-12-12T06:19:00.525Z,22.00
2022-12-12T06:21:32.370Z,20.90
2022-12-12T06:24:06.765Z,22.40
2022-12-12T06:26:38.542Z,24.57
2022-12-12T06:29:10.207Z,23.70
2022-12-12T06:31:42.035Z,22.60
2022-12-12T06:34:13.765Z,25.77
2022-12-12T06:36:45.535Z,24.43
2022-12-12T06:39:17.991Z,23.30
2022-12-12T06:41:49.955Z,23.37
2022-12-12T06:44:21.728Z,23.33
2022-12-12T06:46:53.490Z,24.70
2022-12-12T06:49:25.490Z,25.47
2022-12-12T06:51:57.241Z,22.10
2022-12-12T06:54:28.967Z,22.50
2022-12-12T06:57:00.796Z,25.30
2022-12-12T06:59:32.650Z,26.77
2022-12-12T07:02:04.462Z,24.23
2022-12-12T07:04:36.254Z,23.90
2022-12-12T07:07:07.908Z,21.50
2022-12-12T07:09:39.650Z,21.77
2022-12-12T07:12:11.693Z,21.90
2022-12-12T07:14:43.452Z,27.13
2022-12-12T07:17:15.290Z,22.67
2022-12-12T07:19:47.084Z,22.40
2022-12-12T07:22:18.929Z,22.20
2022-12-12T07:24:52.636Z,23.97
2022-12-12T07:27:24.345Z,22.80
2022-12-12T07:29:56.066Z,20.67
2022-12-12T07:32:27.833Z,22.73
2022-12-12T07:34:59.651Z,21.10
2022-12-12T07:37:31.401Z,25.98
2022-12-12T07:40:03.307Z,24.93
2022-12-12T07:42:35.229Z,24.37
2022-12-12T07:45:07.786Z,22.27
2022-12-12T07:47:39.543Z,20.17
2022-12-12T07:50:11.787Z,22.90
2022-12-12T07:52:43.797Z,22.87
2022-12-12T07:55:15.968Z,22.33
2022-12-12T07:57:49.005Z,18.37
2022-12-12T08:00:21.867Z,21.27
2022-12-12T08:02:53.717Z,22.97
2022-12-12T08:05:25.723Z,21.43
2022-12-12T08:07:57.513Z,23.10
2022-12-12T08:10:29.335Z,21.53
2022-12-12T08:13:01.077Z,21.43
2022-12-12T08:15:33.038Z,20.97
2022-12-12T08:18:04.754Z,21.20
2022-12-12T08:20:40.019Z,21.40
2022-12-12T08:23:11.727Z,21.47
2022-12-12T08:25:43.487Z,20.97
2022-12-12T08:28:15.317Z,20.43
2022-12-12T08:30:50.972Z,23.40
2022-12-12T08:33:22.718Z,25.20
2022-12-12T08:35:54.512Z,22.63
2022-12-12T08:38:26.251Z,23.87
2022-12-12T08:41:02.362Z,20.73
2022-12-12T08:43:34.125Z,22.37
2022-12-12T08:46:11.029Z,25.40
2022-12-12T08:48:48.871Z,21.10
2022-12-12T08:51:20.707Z,22.47
2022-12-12T08:53:53.489Z,22.77
2022-12-12T08:56:25.971Z,20.23
2022-12-12T08:58:57.793Z,22.20
2022-12-12T09:01:29.640Z,21.80
2022-12-12T09:04:01.607Z,20.53
2022-12-12T09:06:33.387Z,19.80
2022-12-12T09:09:05.223Z,21.13
2022-12-12T09:11:36.922Z,21.50
2022-12-12T09:14:08.782Z,21.90
2022-12-12T09:16:40.657Z,24.90
2022-12-12T09:19:12.370Z,33.00
2022-12-12T09:21:44.110Z,23.80
2022-12-12T09:24:16.634Z,22.20
2022-12-12T09:26:48.491Z,26.20
2022-12-12T09:29:20.293Z,26.70
2022-12-12T09:31:52.038Z,21.90
2022-12-12T09:34:23.809Z,22.53
2022-12-12T09:36:55.614Z,22.47
2022-12-12T09:39:27.327Z,20.67
2022-12-12T09:42:08.334Z,19.60
2022-12-12T09:44:40.165Z,22.20
2022-12-12T09:47:24.417Z,22.07
2022-12-12T09:50:01.626Z,20.43
2022-12-12T09:52:37.543Z,19.80
2022-12-12T09:55:21.130Z,19.10
2022-12-12T09:58:00.807Z,21.65
2022-12-12T10:00:38.538Z,19.83
2022-12-12T10:03:13.293Z,20.57
2022-12-12T10:06:28.758Z,19.60
2022-12-12T10:09:02.443Z,17.90
2022-12-12T10:11:52.940Z,18.90
2022-12-12T10:14:45.339Z,18.97
2022-12-12T10:17:39.479Z,17.30
2022-12-12T10:20:19.424Z,18.00
2022-12-12T10:23:09.707Z,17.43
2022-12-12T10:25:53.913Z,15.33
2022-12-12T10:28:28.725Z,17.73
2022-12-12T10:31:15.275Z,15.80
2022-12-12T10:34:08.723Z,16.27
2022-12-12T10:37:13.973Z,14.53
2022-12-12T10:39:48.439Z,16.57
2022-12-12T10:42:48.365Z,17.00
2022-12-12T10:45:38.400Z,17.47
2022-12-12T10:48:10.892Z,19.93
2022-12-12T10:50:44.522Z,15.37
2022-12-12T10:53:16.560Z,19.38
2022-12-12T10:56:19.593Z,17.57
2022-12-12T10:58:56.877Z,14.90
2022-12-12T11:02:07.978Z,13.73
2022-12-12T11:04:25.715Z,13.67
2022-12-12T11:06:57.618Z,12.90
2022-12-12T11:09:30.478Z,13.37
2022-12-12T11:12:10.743Z,15.60
2022-12-12T11:14:53.532Z,14.40
2022-12-12T11:17:27.824Z,12.70
2022-12-12T11:20:01.895Z,12.67
2022-12-12T11:22:33.950Z,14.67
2022-12-12T11:25:06.345Z,14.60
2022-12-12T11:27:40.431Z,15.50
2022-12-12T11:30:37.886Z,11.77
2022-12-12T11:33:21.311Z,14.10
2022-12-12T11:35:56.656Z,11.33
2022-12-12T11:38:32.967Z,12.93
2022-12-12T11:41:07.814Z,12.03
2022-12-12T11:43:59.922Z,12.10
2022-12-12T11:46:33.530Z,12.70
2022-12-12T11:49:05.878Z,12.93
2022-12-12T11:51:43.067Z,13.47
2022-12-12T11:54:16.382Z,11.67
2022-12-12T11:57:02.084Z,12.87
2022-12-12T11:59:57.820Z,10.73
2022-12-12T12:02:53.837Z,11.57
2022-12-12T12:05:37.982Z,12.63
2022-12-12T12:08:15.639Z,12.25
2022-12-12T12:11:19.954Z,12.10
2022-12-12T12:14:06.621Z,11.13
2022-12-12T12:16:49.803Z,13.30
2022-12-12T12:19:40.051Z,9.87
2022-12-12T12:22:14.722Z,12.57
2022-12-12T12:24:46.411Z,10.63
2022-12-12T12:27:27.867Z,10.83
2022-12-12T12:30:02.358Z,9.13
2022-12-12T12:32:49.160Z,12.33
2022-12-12T12:35:50.691Z,11.67
2022-12-12T12:38:47.514Z,9.70
2022-12-12T12:41:47.081Z,8.03
2022-12-12T12:44:50.688Z,10.00
2022-12-12T12:47:49.098Z,10.90
2022-12-12T12:50:32.862Z,10.13
2022-12-12T12:53:20.460Z,8.67
2022-12-12T12:55:57.545Z,9.60
2022-12-12T12:58:39.003Z,10.10
2022-12-12T13:01:29.114Z,9.87
2022-12-12T13:04:03.241Z,9.50
2022-12-12T13:06:48.630Z,9.10
2022-12-12T13:09:25.992Z,9.40
2022-12-12T13:12:09.506Z,9.00
2022-12-12T13:14:52.435Z,8.87
2022-12-12T13:17:36.407Z,8.17
2022-12-12T13:20:19.426Z,7.83
2022-12-12T13:23:36.811Z,6.30
2022-12-12T13:26:22.891Z,7.93
2022-12-12T13:29:01.818Z,6.43
2022-12-12T13:32:13.401Z,6.43
2022-12-12T13:34:50.358Z,5.70
2022-12-12T13:37:23.451Z,4.87
2022-12-12T13:40:07.722Z,5.50
2022-12-12T13:42:59.882Z,6.10
2022-12-12T13:45:36.165Z,6.13
2022-12-12T13:48:35.526Z,6.80
2022-12-12T13:51:32.289Z,5.63
2022-12-12T13:54:12.052Z,6.03
2022-12-12T13:56:48.221Z,5.17
2022-12-12T13:59:23.015Z,5.70
2022-12-12T14:01:59.956Z,6.13
2022-12-12T14:04:37.115Z,6.30
2022-12-12T14:07:18.411Z,6.40
2022-12-12T14:09:55.280Z,7.40
2022-12-12T14:12:33.439Z,6.20
2022-12-12T14:15:28.086Z,7.80
2022-12-12T14:18:02.587Z,6.37
2022-12-12T14:20:41.154Z,6.23
2022-12-12T14:23:12.818Z,8.53
2022-12-12T14:25:44.579Z,7.60
2022-12-12T14:28:20.749Z,6.90
2022-12-12T14:31:10.940Z,7.40
2022-12-12T14:34:05.286Z,6.37
2022-12-12T14:37:09.736Z,6.00
2022-12-12T14:40:18.424Z,6.03
2022-12-12T14:43:20.700Z,6.33
2022-12-12T14:45:51.321Z,6.80
2022-12-12T14:48:27.343Z,5.87
2022-12-12T14:51:05.536Z,6.70
2022-12-12T14:53:37.277Z,6.53
2022-12-12T14:56:22.965Z,6.60
2022-12-12T14:59:05.200Z,7.57
2022-12-12T15:01:44.649Z,7.73
2022-12-12T15:04:27.821Z,6.30
2022-12-12T15:07:01.805Z,6.10
2022-12-12T15:09:35.838Z,6.10
2022-12-12T15:12:10.309Z,7.07
2022-12-12T15:14:47.768Z,7.70
2022-12-12T15:17:21.447Z,8.23
2022-12-12T15:20:02.804Z,8.40
2022-12-12T15:22:37.213Z,9.33
2022-12-12T15:25:18.252Z,8.47
2022-12-12T15:27:55.842Z,8.50
2022-12-12T15:30:44.708Z,8.20
2022-12-12T15:33:23.801Z,9.50
2022-12-12T15:36:02.217Z,8.30
2022-12-12T15:38:34.648Z,6.70
2022-12-12T15:41:13.226Z,6.10
2022-12-12T15:43:45.780Z,6.30
2022-12-12T15:46:17.661Z,7.30
2022-12-12T15:48:50.331Z,7.40
2022-12-12T15:51:25.383Z,6.40
2022-12-12T15:53:57.657Z,6.60
2022-12-12T15:56:29.651Z,7.27
2022-12-12T15:59:04.345Z,6.73
2022-12-12T16:01:36.309Z,7.40
2022-12-12T16:04:11.497Z,7.13
2022-12-12T16:06:45.923Z,6.70
2022-12-12T16:09:22.070Z,6.90
2022-12-12T16:11:59.979Z,6.90
2022-12-12T16:14:41.628Z,7.87
2022-12-12T16:17:25.865Z,8.10
2022-12-12T16:20:07.306Z,7.70
2022-12-12T16:22:46.050Z,8.20
2022-12-12T16:25:29.402Z,8.33
2022-12-12T16:28:28.173Z,8.30
2022-12-12T16:31:03.621Z,8.00
2022-12-12T16:33:37.575Z,8.37
2022-12-12T16:36:16.149Z,9.17
2022-12-12T16:38:47.840Z,8.03
2022-12-12T16:41:19.737Z,9.03
2022-12-12T16:43:51.463Z,9.93
2022-12-12T16:46:25.222Z,9.77
2022-12-12T16:49:04.205Z,10.30
2022-12-12T16:51:37.830Z,9.97
2022-12-12T16:54:15.726Z,8.30
2022-12-12T16:56:52.413Z,9.20
2022-12-12T16:59:24.101Z,10.20
2022-12-12T17:01:55.784Z,10.17
2022-12-12T17:04:28.328Z,8.23
2022-12-12T17:07:00.040Z,10.97
2022-12-12T17:09:31.792Z,10.87
2022-12-12T17:12:03.799Z,11.37
2022-12-12T17:14:37.442Z,12.27
2022-12-12T17:17:09.285Z,12.43
2022-12-12T17:19:41.002Z,10.87
2022-12-12T17:22:12.802Z,12.57
2022-12-12T17:24:44.525Z,11.97
2022-12-12T17:27:16.261Z,14.80
2022-12-12T17:29:48.064Z,14.80
2022-12-12T17:32:24.269Z,13.77
2022-12-12T17:34:57.404Z,13.07
2022-12-12T17:37:29.207Z,13.50
2022-12-12T17:40:02.018Z,16.77
2022-12-12T17:42:33.989Z,19.67
2022-12-12T17:45:08.162Z,18.10
2022-12-12T17:47:40.047Z,16.67
2022-12-12T17:50:12.723Z,16.67
2022-12-12T17:52:44.631Z,17.87
2022-12-12T17:55:54.241Z,16.10
2022-12-12T17:58:08.252Z,16.90
2022-12-12T18:00:39.980Z,16.53
2022-12-12T18:03:11.782Z,17.03
2022-12-12T18:05:43.475Z,17.57
2022-12-12T18:08:15.280Z,20.10
2022-12-12T18:10:47.121Z,20.37
2022-12-12T18:13:18.776Z,18.17
2022-12-12T18:15:57.967Z,15.90
2022-12-12T18:18:29.902Z,16.30
2022-12-12T18:21:10.572Z,15.67
2022-12-12T18:23:44.976Z,15.90
2022-12-12T18:26:22.382Z,16.87
2022-12-12T18:28:59.979Z,17.17
2022-12-12T18:31:32.508Z,20.70
2022-12-12T18:34:05.244Z,17.67
2022-12-12T18:36:37.094Z,18.57
2022-12-12T18:39:08.939Z,17.20
2022-12-12T18:41:40.749Z,17.17
2022-12-12T18:44:15.153Z,15.60
2022-12-12T18:46:50.557Z,16.13
2022-12-12T18:49:22.311Z,17.60
2022-12-12T18:51:54.025Z,18.93
2022-12-12T18:54:25.825Z,19.80
2022-12-12T18:56:57.516Z,16.77
2022-12-12T18:59:29.344Z,16.10
2022-12-12T19:02:01.200Z,14.90
2022-12-12T19:04:33.260Z,17.47
2022-12-12T19:07:05.382Z,17.00
2022-12-12T19:09:37.199Z,17.77
2022-12-12T19:12:08.911Z,16.73
2022-12-12T19:15:08.090Z,17.77
2022-12-12T19:17:33.050Z,20.70
2022-12-12T19:20:05.134Z,18.47
2022-12-12T19:22:45.845Z,17.80
2022-12-12T19:25:18.871Z,20.08
2022-12-12T19:27:50.689Z,18.70
2022-12-12T19:30:22.482Z,21.45
2022-12-12T19:32:55.505Z,21.90
2022-12-12T19:35:27.241Z,19.30
2022-12-12T19:37:58.947Z,18.73
2022-12-12T19:40:30.658Z,20.07
2022-12-12T19:43:02.471Z,17.50
2022-12-12T19:45:34.209Z,19.80
2022-12-12T19:48:06.025Z,19.50
2022-12-12T19:50:37.883Z,20.87
2022-12-12T19:53:09.661Z,20.73
2022-12-12T19:55:47.944Z,24.13
2022-12-12T19:58:19.929Z,21.80
2022-12-12T20:00:51.734Z,21.17
2022-12-12T20:03:23.553Z,20.43
2022-12-12T20:06:08.005Z,21.90
2022-12-12T20:08:39.852Z,21.07
2022-12-12T20:11:14.642Z,21.27
2022-12-12T20:13:51.202Z,23.50
2022-12-12T20:16:25.103Z,24.90
2022-12-12T20:18:57.882Z,22.77
2022-12-12T20:21:59.905Z,22.77
2022-12-12T20:24:26.136Z,22.30
2022-12-12T20:26:59.590Z,19.67
2022-12-12T20:29:31.984Z,21.40
2022-12-12T20:32:03.833Z,21.50
2022-12-12T20:34:35.820Z,21.67
2022-12-12T20:37:09.275Z,19.67
2022-12-12T20:39:41.277Z,18.97
2022-12-12T20:42:13.005Z,22.70
2022-12-12T20:44:44.824Z,20.47
2022-12-12T20:47:17.376Z,21.53
2022-12-12T20:49:50.413Z,21.70
2022-12-12T20:52:22.105Z,18.40
2022-12-12T20:54:54.048Z,18.97
2022-12-12T20:57:25.887Z,20.77
2022-12-12T20:59:57.613Z,18.13
2022-12-12T21:02:30.423Z,19.00
2022-12-12T21:05:02.364Z,18.50
2022-12-12T21:07:34.033Z,18.23
2022-12-12T21:10:06.145Z,18.23
2022-12-12T21:12:37.885Z,17.67
2022-12-12T21:15:10.997Z,17.70
2022-12-12T21:17:42.726Z,17.13
2022-12-12T21:20:14.493Z,17.60
2022-12-12T21:22:46.338Z,16.20
2022-12-12T21:25:18.423Z,16.20
2022-12-12T21:27:50.429Z,17.10
2022-12-12T21:30:22.146Z,18.80
2022-12-12T21:32:53.928Z,19.95
2022-12-12T21:35:25.691Z,19.03
2022-12-12T21:37:57.445Z,19.00
2022-12-12T21:40:29.446Z,16.87
2022-12-12T21:43:01.153Z,17.20
2022-12-12T21:45:32.867Z,15.87
2022-12-12T21:48:05.508Z,17.07
2022-12-12T21:50:37.872Z,17.53
2022-12-12T21:53:28.035Z,15.97
2022-12-12T21:56:17.453Z,16.40
2022-12-12T21:58:49.145Z,16.80
2022-12-12T22:01:21.247Z,18.73
2022-12-12T22:03:54.637Z,15.97
2022-12-12T22:06:31.739Z,17.20
2022-12-12T22:09:06.403Z,16.97
2022-12-12T22:11:41.776Z,18.33
2022-12-12T22:14:21.881Z,19.00
2022-12-12T22:16:53.594Z,19.07
2022-12-12T22:19:25.387Z,20.63
2022-12-12T22:21:57.239Z,19.77
2022-12-12T22:24:29.007Z,17.23
2022-12-12T22:27:02.319Z,19.97
2022-12-12T22:29:34.119Z,18.80
2022-12-12T22:32:06.097Z,18.43
2022-12-12T22:34:37.752Z,17.70
2022-12-12T22:37:09.426Z,16.43
2022-12-12T22:39:41.114Z,15.60
2022-12-12T22:42:13.179Z,17.23
2022-12-12T22:44:44.861Z,16.53
2022-12-12T22:47:16.761Z,18.33
2022-12-12T22:49:48.385Z,16.47
2022-12-12T22:52:20.102Z,18.30
2022-12-12T22:54:52.071Z,16.40
2022-12-12T22:57:23.787Z,16.70
2022-12-12T22:59:55.556Z,17.60
2022-12-12T23:02:27.372Z,16.07
2022-12-12T23:04:59.165Z,18.20
2022-12-12T23:07:31.079Z,14.60
2022-12-12T23:10:03.062Z,15.40
2022-12-12T23:12:35.119Z,16.43
2022-12-12T23:15:07.991Z,14.87
2022-12-12T23:17:39.745Z,14.70
2022-12-12T23:20:12.010Z,17.33
2022-12-12T23:22:46.352Z,14.40
2022-12-12T23:25:18.132Z,16.63
2022-12-12T23:27:49.883Z,15.70
2022-12-12T23:30:21.585Z,17.40
2022-12-12T23:32:53.345Z,16.50
2022-12-12T23:35:25.153Z,14.73
2022-12-12T23:37:57.002Z,17.03
2022-12-12T23:40:28.781Z,18.00
2022-12-12T23:43:00.423Z,15.40
2022-12-12T23:45:34.684Z,16.33
2022-12-12T23:48:07.483Z,16.00
2022-12-12T23:50:39.195Z,14.70
2022-12-12T23:53:10.886Z,18.93
2022-12-12T23:55:42.594Z,16.87
2022-12-12T23:58:14.352Z,19.38
